Time;durP1;ratioP1;P1;durP2;ratioP2;P2;SDS_P1;SDS_P2;PMS_P1;PMS_P2;Temp;Humidity;BMP_temperature;BMP_pressure;BME280_temperature;BME280_humidity;BME280_pressure;Samples;Min_cycle;Max_cycle;Signal;HPM_P1;HPM_P2
2021/10/26 00:00:34;;;;;;;;;37.50;30.00;;;;;;;;5106585;28;8818;-78
2021/10/26 00:03:00;;;;;;;;;29.33;28.33;;;;;;;;5104927;28;8885;-78
2021/10/26 00:05:25;;;;;;;;;27.33;26.00;;;;;;;;5107217;28;8833;-78
2021/10/26 00:07:50;;;;;;;;;23.67;23.67;;;;;;;;5105536;28;8774;-78
2021/10/26 00:10:15;;;;;;;;;25.67;25.67;;;;;;;;5102255;28;9549;-81
2021/10/26 00:12:41;;;;;;;;;29.67;23.67;;;;;;;;5097278;28;8817;-80
2021/10/26 00:15:07;;;;;;;;;18.33;18.33;;;;;;;;5098178;28;8810;-80
2021/10/26 00:17:32;;;;;;;;;25.00;21.67;;;;;;;;5098728;28;9775;-81
2021/10/26 00:19:57;;;;;;;;;27.00;23.00;;;;;;;;5096998;28;9159;-80
2021/10/26 00:22:22;;;;;;;;;33.00;27.00;;;;;;;;5097716;28;8907;-80
2021/10/26 00:24:47;;;;;;;;;23.00;21.33;;;;;;;;5104797;28;8890;-78
2021/10/26 00:27:13;;;;;;;;;22.33;20.00;;;;;;;;5105702;28;8866;-78
2021/10/26 00:29:38;;;;;;;;;28.33;25.00;;;;;;;;5110126;28;8815;-78
2021/10/26 00:32:03;;;;;;;;;24.00;23.67;;;;;;;;5126413;28;8783;-78
2021/10/26 00:34:29;;;;;;;;;23.67;20.00;;;;;;;;5125008;27;8803;-78
2021/10/26 00:36:54;;;;;;;;;23.67;21.00;;;;;;;;5122912;28;8841;-78
2021/10/26 00:39:20;;;;;;;;;22.33;19.67;;;;;;;;5124628;27;8921;-78
2021/10/26 00:41:45;;;;;;;;;25.00;23.33;;;;;;;;5126875;27;8783;-77
2021/10/26 00:44:12;;;;;;;;;22.00;21.33;;;;;;;;5126317;27;8779;-78
2021/10/26 00:46:37;;;;;;;;;23.67;23.00;;;;;;;;5125460;27;8787;-78
2021/10/26 00:49:03;;;;;;;;;20.00;18.67;;;;;;;;5121541;28;8931;-78
2021/10/26 00:51:29;;;;;;;;;24.00;23.00;;;;;;;;5122159;27;8870;-78
2021/10/26 00:53:56;;;;;;;;;24.33;23.33;;;;;;;;5116026;27;11509;-78
2021/10/26 00:56:22;;;;;;;;;29.00;23.33;;;;;;;;5106059;28;9033;-80
2021/10/26 00:58:48;;;;;;;;;27.00;27.00;;;;;;;;5096640;28;8903;-81
2021/10/26 01:01:13;;;;;;;;;29.67;27.00;;;;;;;;5095879;28;8817;-80
2021/10/26 01:03:38;;;;;;;;;27.00;24.67;;;;;;;;5096842;28;8816;-80
2021/10/26 01:06:04;;;;;;;;;22.33;22.33;;;;;;;;5096610;28;8793;-81
2021/10/26 01:08:30;;;;;;;;;32.00;28.00;;;;;;;;5095284;28;9577;-81
2021/10/26 01:10:55;;;;;;;;;23.67;23.67;;;;;;;;5102459;28;8793;-80
2021/10/26 01:13:22;;;;;;;;;22.33;21.67;;;;;;;;5104437;28;8958;-78
2021/10/26 01:15:47;;;;;;;;;25.67;25.67;;;;;;;;5107365;28;8773;-79
2021/10/26 01:18:13;;;;;;;;;24.33;24.33;;;;;;;;5108186;28;9219;-78
2021/10/26 01:20:38;;;;;;;;;31.00;26.00;;;;;;;;5105443;28;8904;-78
2021/10/26 01:23:03;;;;;;;;;25.33;22.67;;;;;;;;5109108;28;8789;-78
2021/10/26 01:25:29;;;;;;;;;27.33;24.67;;;;;;;;5111163;28;8786;-79
2021/10/26 01:27:54;;;;;;;;;30.00;27.00;;;;;;;;5104288;28;8782;-81
2021/10/26 01:30:28;;;;;;;;;26.67;25.33;;;;;;;;5104592;28;8826;-80
2021/10/26 01:32:54;;;;;;;;;27.67;25.00;;;;;;;;5114933;28;8727;-81
2021/10/26 01:35:19;;;;;;;;;26.33;25.33;;;;;;;;5114893;28;9718;-81
2021/10/26 01:37:44;;;;;;;;;23.33;22.67;;;;;;;;5116906;27;8810;-81
2021/10/26 01:40:09;;;;;;;;;25.33;24.33;;;;;;;;5122897;27;8830;-78
2021/10/26 01:42:35;;;;;;;;;25.33;23.67;;;;;;;;5135689;28;8803;-79
2021/10/26 01:45:00;;;;;;;;;23.00;21.67;;;;;;;;5136850;27;8822;-78
2021/10/26 01:47:25;;;;;;;;;24.33;24.33;;;;;;;;5135370;27;8949;-79
2021/10/26 01:49:51;;;;;;;;;24.00;23.67;;;;;;;;5135209;27;8830;-79
2021/10/26 01:52:16;;;;;;;;;27.00;24.67;;;;;;;;5135968;27;8783;-78
2021/10/26 01:54:41;;;;;;;;;29.00;29.00;;;;;;;;5135741;27;8864;-79
2021/10/26 01:57:07;;;;;;;;;24.67;22.00;;;;;;;;5134778;28;8803;-78
2021/10/26 01:59:33;;;;;;;;;26.33;25.67;;;;;;;;5127173;27;8887;-80
2021/10/26 02:01:58;;;;;;;;;28.67;25.67;;;;;;;;5120891;27;9134;-80
2021/10/26 02:04:24;;;;;;;;;21.33;20.33;;;;;;;;5119122;27;11516;-81
2021/10/26 02:06:50;;;;;;;;;28.33;24.33;;;;;;;;5119596;27;8803;-80
2021/10/26 02:09:15;;;;;;;;;29.00;27.00;;;;;;;;5118019;28;8811;-81
2021/10/26 02:11:40;;;;;;;;;24.67;21.33;;;;;;;;5122236;27;8831;-80
2021/10/26 02:14:08;;;;;;;;;19.00;18.67;;;;;;;;5128607;27;8817;-81
2021/10/26 02:16:33;;;;;;;;;21.75;19.75;;;;;;;;5119117;27;9709;-80
2021/10/26 02:18:59;;;;;;;;;25.00;23.33;;;;;;;;5118919;27;8815;-80
2021/10/26 02:21:24;;;;;;;;;19.67;19.67;;;;;;;;5119175;27;8876;-81
2021/10/26 02:23:49;;;;;;;;;22.67;21.00;;;;;;;;5111833;27;8865;-80
2021/10/26 02:26:14;;;;;;;;;17.67;16.00;;;;;;;;5098641;28;8794;-81
2021/10/26 02:28:40;;;;;;;;;24.33;22.00;;;;;;;;5112677;28;8797;-79
2021/10/26 02:31:06;;;;;;;;;25.00;23.67;;;;;;;;5126758;28;9242;-79
2021/10/26 02:33:31;;;;;;;;;20.33;18.33;;;;;;;;5133058;27;9211;-78
2021/10/26 02:35:56;;;;;;;;;18.33;16.67;;;;;;;;5132781;27;8834;-79
2021/10/26 02:38:21;;;;;;;;;24.00;22.00;;;;;;;;5133572;27;8767;-78
2021/10/26 02:40:47;;;;;;;;;20.33;18.67;;;;;;;;5134195;27;8783;-78
2021/10/26 02:43:12;;;;;;;;;23.00;23.00;;;;;;;;5131876;28;8750;-78
2021/10/26 02:45:38;;;;;;;;;22.00;19.33;;;;;;;;5126644;27;8849;-80
2021/10/26 02:48:03;;;;;;;;;21.67;21.33;;;;;;;;5118471;27;8787;-80
2021/10/26 02:50:29;;;;;;;;;20.00;20.00;;;;;;;;5117674;27;8787;-80
2021/10/26 02:52:54;;;;;;;;;16.33;15.00;;;;;;;;5118346;27;8799;-80
2021/10/26 02:55:19;;;;;;;;;22.33;20.67;;;;;;;;5120730;27;8791;-80
2021/10/26 02:57:45;;;;;;;;;21.67;21.33;;;;;;;;5118559;27;8799;-80
2021/10/26 03:00:11;;;;;;;;;17.33;17.00;;;;;;;;5132814;27;8833;-78
2021/10/26 03:02:36;;;;;;;;;17.33;17.33;;;;;;;;5132274;27;8829;-78
2021/10/26 03:05:01;;;;;;;;;19.33;19.33;;;;;;;;5132271;28;9490;-78
2021/10/26 03:07:27;;;;;;;;;22.00;21.00;;;;;;;;5131904;27;8834;-78
2021/10/26 03:09:52;;;;;;;;;19.67;19.00;;;;;;;;5133129;27;8821;-78
2021/10/26 03:12:17;;;;;;;;;19.00;19.00;;;;;;;;5133933;27;9634;-78
2021/10/26 03:14:42;;;;;;;;;19.33;17.00;;;;;;;;5132330;27;8804;-79
2021/10/26 03:17:08;;;;;;;;;17.33;16.33;;;;;;;;5133645;27;8799;-78
2021/10/26 03:19:33;;;;;;;;;18.33;17.33;;;;;;;;5133753;27;8815;-79
2021/10/26 03:21:58;;;;;;;;;16.00;15.33;;;;;;;;5130689;28;8744;-78
2021/10/26 03:24:24;;;;;;;;;15.67;15.67;;;;;;;;5134351;27;8795;-78
2021/10/26 03:26:49;;;;;;;;;22.00;17.67;;;;;;;;5134735;28;8791;-78
2021/10/26 03:29:15;;;;;;;;;16.67;16.00;;;;;;;;5132512;28;8825;-78
2021/10/26 03:31:40;;;;;;;;;20.67;19.00;;;;;;;;5130479;28;8819;-79
2021/10/26 03:34:05;;;;;;;;;18.00;15.33;;;;;;;;5132926;27;8974;-79
2021/10/26 03:36:32;;;;;;;;;18.00;17.33;;;;;;;;5130065;27;8811;-78
2021/10/26 03:38:57;;;;;;;;;18.00;18.00;;;;;;;;5129479;28;8800;-78
2021/10/26 03:41:23;;;;;;;;;18.00;16.67;;;;;;;;5129913;28;9146;-78
2021/10/26 03:43:48;;;;;;;;;17.33;16.33;;;;;;;;5132996;27;8805;-78
2021/10/26 03:46:15;;;;;;;;;14.67;14.67;;;;;;;;5134395;27;9680;-77
2021/10/26 03:48:40;;;;;;;;;18.00;16.00;;;;;;;;5133944;27;8732;-78
2021/10/26 03:51:05;;;;;;;;;19.33;18.00;;;;;;;;5135242;27;8938;-78
2021/10/26 03:53:30;;;;;;;;;20.00;20.00;;;;;;;;5128867;27;8828;-78
2021/10/26 03:55:56;;;;;;;;;17.00;16.00;;;;;;;;5113869;28;8793;-78
2021/10/26 03:58:21;;;;;;;;;18.00;17.00;;;;;;;;5113042;28;8737;-78
2021/10/26 04:00:46;;;;;;;;;20.67;17.67;;;;;;;;5112505;28;8822;-78
2021/10/26 04:03:11;;;;;;;;;18.33;17.33;;;;;;;;5110420;28;8830;-79
2021/10/26 04:05:42;;;;;;;;;18.67;18.33;;;;;;;;5112045;28;8828;-78
2021/10/26 04:10:54;;;;;;;;;16.67;16.67;;;;;;;;5103545;28;9025;-77
2021/10/26 04:13:20;;;;;;;;;17.33;17.33;;;;;;;;5104667;28;8857;-77
2021/10/26 04:15:46;;;;;;;;;16.00;14.33;;;;;;;;5100361;28;9273;-77
2021/10/26 04:18:11;;;;;;;;;17.00;16.00;;;;;;;;5100248;28;8996;-80
2021/10/26 04:20:36;;;;;;;;;15.00;14.00;;;;;;;;5094757;28;8848;-78
2021/10/26 04:23:02;;;;;;;;;15.67;15.33;;;;;;;;5096486;28;8798;-80
2021/10/26 04:25:27;;;;;;;;;21.00;17.00;;;;;;;;5096565;28;8809;-80
2021/10/26 04:27:53;;;;;;;;;20.67;16.33;;;;;;;;5094598;28;8889;-80
2021/10/26 04:30:19;;;;;;;;;20.33;19.67;;;;;;;;5102719;28;8937;-79
2021/10/26 04:32:44;;;;;;;;;20.00;19.33;;;;;;;;5118106;27;8783;-79
2021/10/26 04:35:10;;;;;;;;;20.33;20.00;;;;;;;;5120370;27;8854;-79
2021/10/26 04:37:35;;;;;;;;;15.33;15.33;;;;;;;;5119155;27;8795;-78
2021/10/26 04:40:02;;;;;;;;;16.67;16.67;;;;;;;;5117956;27;8980;-78
2021/10/26 04:42:28;;;;;;;;;19.00;19.00;;;;;;;;5118411;27;8888;-78
2021/10/26 04:44:53;;;;;;;;;18.67;18.67;;;;;;;;5118150;27;9102;-78
2021/10/26 04:47:22;;;;;;;;;19.00;17.33;;;;;;;;5104481;28;8830;-79
2021/10/26 04:49:47;;;;;;;;;22.00;21.00;;;;;;;;5096942;28;8816;-78
2021/10/26 04:52:13;;;;;;;;;18.67;17.33;;;;;;;;5097149;28;9304;-79
2021/10/26 04:54:38;;;;;;;;;19.67;19.00;;;;;;;;5096574;28;8793;-78
2021/10/26 04:57:03;;;;;;;;;15.00;13.67;;;;;;;;5096047;28;8822;-79
2021/10/26 04:59:28;;;;;;;;;16.00;15.67;;;;;;;;5103417;28;9671;-78
2021/10/26 05:01:54;;;;;;;;;20.67;18.67;;;;;;;;5100889;28;8837;-78
2021/10/26 05:04:19;;;;;;;;;16.33;13.33;;;;;;;;5096384;28;8856;-79
2021/10/26 05:06:44;;;;;;;;;17.33;17.00;;;;;;;;5099613;28;8814;-80
2021/10/26 05:09:09;;;;;;;;;18.33;18.00;;;;;;;;5104660;28;9369;-78
2021/10/26 05:11:35;;;;;;;;;17.67;15.00;;;;;;;;5109579;28;8824;-78
2021/10/26 05:14:00;;;;;;;;;15.00;14.00;;;;;;;;5103633;28;9596;-77
2021/10/26 05:16:26;;;;;;;;;16.00;16.00;;;;;;;;5098318;28;8836;-77
2021/10/26 05:18:55;;;;;;;;;46.75;37.50;;;;;;;;5099234;28;8887;-77
2021/10/26 05:21:21;;;;;;;;;25.33;23.67;;;;;;;;5099041;28;10430;-76
2021/10/26 05:23:48;;;;;;;;;17.00;17.00;;;;;;;;5099701;28;9274;-77
2021/10/26 05:26:13;;;;;;;;;18.33;17.00;;;;;;;;5099496;28;9012;-78
2021/10/26 05:28:39;;;;;;;;;14.00;14.00;;;;;;;;5099999;28;9039;-79
2021/10/26 05:31:04;;;;;;;;;15.33;14.00;;;;;;;;5102137;28;8868;-80
2021/10/26 05:33:30;;;;;;;;;16.00;15.67;;;;;;;;5100502;28;8810;-77
2021/10/26 05:35:55;;;;;;;;;15.67;15.33;;;;;;;;5099711;28;8826;-78
2021/10/26 05:38:20;;;;;;;;;16.00;14.00;;;;;;;;5097782;28;8823;-79
2021/10/26 05:40:46;;;;;;;;;14.00;14.00;;;;;;;;5097918;28;8852;-79
2021/10/26 05:43:11;;;;;;;;;12.00;10.00;;;;;;;;5099420;28;8801;-79
2021/10/26 05:45:36;;;;;;;;;15.67;13.67;;;;;;;;5099229;28;8789;-79
2021/10/26 05:48:01;;;;;;;;;13.67;13.00;;;;;;;;5097855;28;8925;-77
2021/10/26 05:50:27;;;;;;;;;14.67;14.67;;;;;;;;5107108;28;9324;-78
2021/10/26 05:52:52;;;;;;;;;14.67;13.00;;;;;;;;5097048;28;8873;-77
2021/10/26 05:55:17;;;;;;;;;16.33;15.00;;;;;;;;5098999;28;8794;-77
2021/10/26 05:57:43;;;;;;;;;14.33;13.00;;;;;;;;5099062;28;8803;-78
2021/10/26 06:00:08;;;;;;;;;16.00;15.33;;;;;;;;5098965;28;9533;-75
2021/10/26 06:02:33;;;;;;;;;13.67;12.33;;;;;;;;5099031;28;8809;-75
2021/10/26 06:04:58;;;;;;;;;15.33;13.00;;;;;;;;5098632;28;8777;-75
2021/10/26 06:07:24;;;;;;;;;16.67;14.33;;;;;;;;5098784;28;8778;-75
2021/10/26 06:09:49;;;;;;;;;14.00;13.00;;;;;;;;5098841;28;8809;-76
2021/10/26 06:12:22;;;;;;;;;17.00;15.00;;;;;;;;5098956;28;8790;-79
2021/10/26 06:14:47;;;;;;;;;18.00;18.00;;;;;;;;5098700;28;8827;-79
2021/10/26 06:17:13;;;;;;;;;14.33;12.33;;;;;;;;5098672;28;9313;-79
2021/10/26 06:19:38;;;;;;;;;17.33;16.00;;;;;;;;5098400;28;9695;-79
2021/10/26 06:22:03;;;;;;;;;12.33;11.00;;;;;;;;5098491;28;8773;-80
2021/10/26 06:24:28;;;;;;;;;17.00;16.00;;;;;;;;5097705;28;8798;-77
2021/10/26 06:26:54;;;;;;;;;16.67;15.33;;;;;;;;5098417;28;8782;-81
2021/10/26 06:29:19;;;;;;;;;15.33;14.67;;;;;;;;5098701;28;8798;-77
2021/10/26 06:31:45;;;;;;;;;18.33;18.00;;;;;;;;5118738;27;8834;-76
2021/10/26 06:34:10;;;;;;;;;17.67;15.67;;;;;;;;5118273;27;8779;-76
2021/10/26 06:36:36;;;;;;;;;17.33;14.33;;;;;;;;5118672;27;11516;-76
2021/10/26 06:39:02;;;;;;;;;17.00;17.00;;;;;;;;5118719;27;8794;-75
2021/10/26 06:41:27;;;;;;;;;18.67;15.67;;;;;;;;5118693;27;9121;-76
2021/10/26 06:43:52;;;;;;;;;21.67;19.33;;;;;;;;5118841;27;8810;-75
2021/10/26 06:46:17;;;;;;;;;20.33;17.33;;;;;;;;5118756;27;8842;-76
2021/10/26 06:48:43;;;;;;;;;17.00;16.33;;;;;;;;5116954;28;8916;-75
2021/10/26 06:51:08;;;;;;;;;18.33;17.33;;;;;;;;5118592;27;9522;-74
2021/10/26 06:53:38;;;;;;;;;18.67;18.67;;;;;;;;5118436;27;8798;-76
2021/10/26 06:56:07;;;;;;;;;18.33;16.67;;;;;;;;5118758;27;8856;-75
2021/10/26 06:58:32;;;;;;;;;17.50;15.25;;;;;;;;5118477;27;8868;-76
2021/10/26 07:00:57;;;;;;;;;20.67;19.33;;;;;;;;5117104;28;8825;-75
2021/10/26 07:03:23;;;;;;;;;22.33;20.00;;;;;;;;5117158;28;8799;-75
2021/10/26 07:05:48;;;;;;;;;19.67;16.33;;;;;;;;5118347;27;8771;-75
2021/10/26 07:08:13;;;;;;;;;18.33;16.67;;;;;;;;5118311;27;8831;-76
2021/10/26 07:10:38;;;;;;;;;16.33;15.33;;;;;;;;5118445;27;8799;-75
2021/10/26 07:13:04;;;;;;;;;20.33;19.00;;;;;;;;5117045;28;9765;-76
2021/10/26 07:15:31;;;;;;;;;19.33;17.33;;;;;;;;5116889;28;8803;-75
2021/10/26 07:17:57;;;;;;;;;17.25;17.00;;;;;;;;5118133;27;8791;-76
2021/10/26 07:20:22;;;;;;;;;18.67;17.33;;;;;;;;5118012;27;8852;-75
2021/10/26 07:22:52;;;;;;;;;20.33;19.00;;;;;;;;5116745;28;9201;-76
2021/10/26 07:25:17;;;;;;;;;20.00;18.00;;;;;;;;5116707;28;8754;-75
2021/10/26 07:27:43;;;;;;;;;8.67;8.00;;;;;;;;5118193;27;9523;-75
2021/10/26 07:30:10;;;;;;;;;20.67;19.33;;;;;;;;5110746;27;8904;-76
2021/10/26 07:32:37;;;;;;;;;18.00;16.33;;;;;;;;5097557;28;8792;-75
2021/10/26 07:35:03;;;;;;;;;19.75;17.25;;;;;;;;5097404;28;8862;-76
2021/10/26 07:37:34;;;;;;;;;17.67;16.33;;;;;;;;5097183;28;8774;-76
2021/10/26 07:39:59;;;;;;;;;19.00;16.50;;;;;;;;5097408;28;11025;-77
2021/10/26 07:42:24;;;;;;;;;18.00;16.00;;;;;;;;5097434;28;8892;-76
2021/10/26 07:44:50;;;;;;;;;12.00;11.33;;;;;;;;5097577;28;8777;-76
2021/10/26 07:47:16;;;;;;;;;16.00;13.33;;;;;;;;5097386;28;8770;-75
2021/10/26 07:49:43;;;;;;;;;15.00;13.50;;;;;;;;5095497;28;8820;-76
2021/10/26 07:52:09;;;;;;;;;14.00;13.50;;;;;;;;5097069;28;8774;-76
2021/10/26 07:54:34;;;;;;;;;13.33;13.00;;;;;;;;5097365;28;8903;-75
2021/10/26 07:57:00;;;;;;;;;16.33;14.33;;;;;;;;5097232;28;8797;-75
2021/10/26 07:59:25;;;;;;;;;13.67;13.00;;;;;;;;5097192;28;8817;-75
2021/10/26 08:01:50;;;;;;;;;16.00;15.00;;;;;;;;5095837;28;8805;-76
2021/10/26 08:04:16;;;;;;;;;16.67;15.00;;;;;;;;5096894;28;8797;-75
2021/10/26 08:06:45;;;;;;;;;15.25;14.50;;;;;;;;5096928;28;8727;-75
2021/10/26 08:09:11;;;;;;;;;19.33;17.00;;;;;;;;5097110;28;8816;-75
2021/10/26 08:11:36;;;;;;;;;20.00;15.67;;;;;;;;5096981;28;8877;-75
2021/10/26 08:14:03;;;;;;;;;18.67;18.00;;;;;;;;5097063;28;8782;-75
2021/10/26 08:16:28;;;;;;;;;16.25;16.25;;;;;;;;5096729;28;8774;-75
2021/10/26 08:18:54;;;;;;;;;17.00;16.00;;;;;;;;5096898;28;8847;-75
2021/10/26 08:21:19;;;;;;;;;16.67;16.00;;;;;;;;5096848;28;8793;-75
2021/10/26 08:23:45;;;;;;;;;16.67;15.67;;;;;;;;5095546;28;8805;-75
2021/10/26 08:26:15;;;;;;;;;19.67;19.67;;;;;;;;5096775;28;8778;-76
2021/10/26 08:28:41;;;;;;;;;14.25;14.25;;;;;;;;5096696;28;8843;-75
2021/10/26 08:31:16;;;;;;;;;19.33;16.00;;;;;;;;5111980;28;8811;-75
2021/10/26 08:34:08;;;;;;;;;20.75;18.50;;;;;;;;5116872;27;8767;-76
2021/10/26 08:36:28;;;;;;;;;17.00;17.00;;;;;;;;5116604;28;8787;-75
2021/10/26 08:38:53;;;;;;;;;24.00;20.33;;;;;;;;5115544;28;8865;-75
2021/10/26 08:41:19;;;;;;;;;18.67;17.00;;;;;;;;5117042;27;8901;-75
2021/10/26 08:43:44;;;;;;;;;20.67;18.67;;;;;;;;5117020;27;8864;-75
2021/10/26 08:46:11;;;;;;;;;22.00;20.33;;;;;;;;5115641;28;8798;-75
2021/10/26 08:48:40;;;;;;;;;18.75;18.50;;;;;;;;5120427;28;8767;-75
2021/10/26 08:51:06;;;;;;;;;21.67;21.00;;;;;;;;5123594;27;9751;-76
2021/10/26 08:53:32;;;;;;;;;18.67;17.33;;;;;;;;5123531;27;8871;-75
2021/10/26 08:55:59;;;;;;;;;22.00;22.00;;;;;;;;5123878;27;8814;-75
2021/10/26 08:58:25;;;;;;;;;18.25;18.25;;;;;;;;5123691;27;8898;-75
2021/10/26 09:00:51;;;;;;;;;20.25;18.25;;;;;;;;5123677;27;8767;-76
2021/10/26 09:03:21;;;;;;;;;22.25;19.00;;;;;;;;5122211;28;8843;-76
2021/10/26 09:05:47;;;;;;;;;21.50;20.00;;;;;;;;5122242;28;8775;-76
2021/10/26 09:08:13;;;;;;;;;18.00;16.33;;;;;;;;5121890;28;8836;-75
2021/10/26 09:10:39;;;;;;;;;21.33;21.00;;;;;;;;5122190;28;9605;-76
2021/10/26 09:18:54;;;;;;;;;14.00;13.50;;;;;;;;5123028;28;8771;-76
2021/10/26 09:21:23;;;;;;;;;18.00;16.25;;;;;;;;5123175;27;8873;-76
2021/10/26 09:23:48;;;;;;;;;13.75;13.00;;;;;;;;5121910;28;8764;-75
2021/10/26 09:26:15;;;;;;;;;20.33;17.00;;;;;;;;5121997;28;9597;-77
2021/10/26 09:28:48;;;;;;;;;18.75;17.50;;;;;;;;5123393;27;8751;-76
2021/10/26 09:31:22;;;;;;;;;15.00;15.00;;;;;;;;5106633;27;8789;-76
2021/10/26 09:33:55;;;;;;;;;16.25;16.25;;;;;;;;5102594;28;8880;-76
2021/10/26 09:36:33;;;;;;;;;16.50;14.25;;;;;;;;5102551;28;8803;-75
2021/10/26 09:39:04;;;;;;;;;21.25;17.50;;;;;;;;5101226;28;8898;-75
2021/10/26 09:42:01;;;;;;;;;18.50;18.25;;;;;;;;5102612;28;8819;-75
2021/10/26 09:44:31;;;;;;;;;14.00;13.75;;;;;;;;5081163;28;8726;-75
2021/10/26 09:46:58;;;;;;;;;18.50;17.50;;;;;;;;5102665;28;8766;-76
2021/10/26 09:49:24;;;;;;;;;14.00;14.00;;;;;;;;5102115;28;8833;-76
2021/10/26 09:51:51;;;;;;;;;16.50;15.50;;;;;;;;5102433;28;8754;-75
2021/10/26 09:54:17;;;;;;;;;16.00;15.00;;;;;;;;5101152;28;8746;-76
2021/10/26 09:57:03;;;;;;;;;18.75;18.50;;;;;;;;5102473;28;8746;-76
2021/10/26 09:59:28;;;;;;;;;16.00;16.00;;;;;;;;5099009;28;8914;-76
2021/10/26 10:01:54;;;;;;;;;14.67;14.33;;;;;;;;5099126;28;8774;-76
2021/10/26 10:04:25;;;;;;;;;13.50;13.00;;;;;;;;5098927;28;8781;-76
2021/10/26 10:06:50;;;;;;;;;13.50;13.00;;;;;;;;5098872;28;8777;-76
2021/10/26 10:09:20;;;;;;;;;11.67;10.33;;;;;;;;5098970;28;8793;-76
2021/10/26 10:12:15;;;;;;;;;15.50;12.00;;;;;;;;5098855;28;8754;-76
2021/10/26 10:14:41;;;;;;;;;13.25;13.00;;;;;;;;5080956;28;8786;-76
2021/10/26 10:17:10;;;;;;;;;14.33;11.33;;;;;;;;5098875;28;8793;-77
2021/10/26 10:19:36;;;;;;;;;11.25;11.25;;;;;;;;5098528;28;8848;-76
2021/10/26 10:22:05;;;;;;;;;13.25;12.00;;;;;;;;5098672;28;9659;-76
2021/10/26 10:24:32;;;;;;;;;14.50;12.00;;;;;;;;5098449;28;8793;-79
2021/10/26 10:26:57;;;;;;;;;13.75;13.00;;;;;;;;5098740;28;8778;-78
2021/10/26 10:29:26;;;;;;;;;14.00;11.67;;;;;;;;5099181;28;8808;-81
2021/10/26 10:31:51;;;;;;;;;12.25;10.75;;;;;;;;5117053;28;8791;-78
2021/10/26 10:34:20;;;;;;;;;12.67;10.67;;;;;;;;5118695;27;8787;-80
2021/10/26 10:36:46;;;;;;;;;12.50;12.50;;;;;;;;5118861;27;8744;-79
2021/10/26 10:39:13;;;;;;;;;14.75;12.00;;;;;;;;5118447;27;8772;-79
2021/10/26 10:41:40;;;;;;;;;13.75;11.75;;;;;;;;5118633;27;8790;-77
2021/10/26 10:44:28;;;;;;;;;10.25;10.00;;;;;;;;5118707;27;8751;-76
2021/10/26 10:46:59;;;;;;;;;12.25;12.25;;;;;;;;5110209;28;8771;-76
2021/10/26 10:49:37;;;;;;;;;13.50;13.00;;;;;;;;5118219;27;8794;-76
2021/10/26 10:52:04;;;;;;;;;10.75;10.00;;;;;;;;5118453;27;8791;-75
2021/10/26 10:54:41;;;;;;;;;14.00;13.25;;;;;;;;5117094;28;8855;-77
2021/10/26 10:57:18;;;;;;;;;11.00;10.50;;;;;;;;5118573;27;8752;-76
2021/10/26 10:59:44;;;;;;;;;11.00;9.75;;;;;;;;5118491;27;9705;-76
2021/10/26 11:02:22;;;;;;;;;13.50;12.75;;;;;;;;5117050;28;8806;-78
2021/10/26 11:04:48;;;;;;;;;9.50;9.50;;;;;;;;5118275;27;8764;-77
2021/10/26 11:07:13;;;;;;;;;12.00;10.00;;;;;;;;5118317;27;8914;-78
2021/10/26 11:09:39;;;;;;;;;8.33;8.33;;;;;;;;5116966;28;8791;-78
2021/10/26 11:12:17;;;;;;;;;8.50;8.25;;;;;;;;5117739;27;9681;-78
2021/10/26 11:14:47;;;;;;;;;10.00;9.25;;;;;;;;5118248;27;8760;-79
2021/10/26 11:17:31;;;;;;;;;8.50;7.50;;;;;;;;5118090;27;8772;-75
2021/10/26 11:19:57;;;;;;;;;7.00;5.50;;;;;;;;5117919;28;8833;-78
2021/10/26 11:22:41;;;;;;;;;7.00;7.00;;;;;;;;5118167;27;8764;-76
2021/10/26 11:25:20;;;;;;;;;6.50;6.25;;;;;;;;5118249;28;8825;-76
2021/10/26 11:27:46;;;;;;;;;8.00;8.00;;;;;;;;5118168;27;8736;-76
2021/10/26 11:30:30;;;;;;;;;8.67;8.67;;;;;;;;5110416;27;8883;-76
2021/10/26 11:33:13;;;;;;;;;9.50;9.25;;;;;;;;5097456;28;11446;-76
2021/10/26 11:35:41;;;;;;;;;10.75;10.00;;;;;;;;5097419;28;9695;-76
2021/10/26 11:38:08;;;;;;;;;9.25;9.25;;;;;;;;5097284;28;8868;-76
2021/10/26 11:40:33;;;;;;;;;10.00;8.25;;;;;;;;5097614;28;8805;-77
2021/10/26 11:42:59;;;;;;;;;8.33;8.00;;;;;;;;5097416;28;8883;-76
2021/10/26 11:45:25;;;;;;;;;9.25;8.50;;;;;;;;5096375;28;8770;-76
2021/10/26 11:47:50;;;;;;;;;7.33;6.00;;;;;;;;5095515;28;8811;-79
2021/10/26 11:50:19;;;;;;;;;8.00;8.00;;;;;;;;5096881;28;8782;-79
2021/10/26 11:52:44;;;;;;;;;5.25;5.25;;;;;;;;5096940;28;8788;-77
2021/10/26 11:55:10;;;;;;;;;6.33;5.00;;;;;;;;5097226;28;9531;-76
2021/10/26 11:57:35;;;;;;;;;6.67;6.67;;;;;;;;5097207;28;8789;-79
2021/10/26 12:00:03;;;;;;;;;9.00;8.33;;;;;;;;5097001;28;8841;-79
2021/10/26 12:02:32;;;;;;;;;8.00;8.00;;;;;;;;5096912;28;8774;-78
2021/10/26 12:04:58;;;;;;;;;9.00;9.00;;;;;;;;5096582;28;8746;-78
2021/10/26 12:07:25;;;;;;;;;8.50;7.25;;;;;;;;5097071;28;8758;-77
2021/10/26 12:09:54;;;;;;;;;7.50;6.75;;;;;;;;5095658;28;8894;-78
2021/10/26 12:12:21;;;;;;;;;6.75;6.75;;;;;;;;5096839;28;8792;-78
2021/10/26 12:14:47;;;;;;;;;8.25;8.25;;;;;;;;5096758;28;8758;-76
2021/10/26 12:17:19;;;;;;;;;9.25;8.00;;;;;;;;5096581;28;9840;-76
2021/10/26 12:19:47;;;;;;;;;5.25;5.25;;;;;;;;5096640;28;8789;-77
2021/10/26 12:22:14;;;;;;;;;7.25;7.00;;;;;;;;5096208;28;8770;-77
2021/10/26 12:24:44;;;;;;;;;6.00;5.25;;;;;;;;5096086;28;9760;-78
2021/10/26 12:27:09;;;;;;;;;8.00;7.25;;;;;;;;5094914;28;8758;-76
2021/10/26 12:29:36;;;;;;;;;5.00;5.00;;;;;;;;5096563;28;8833;-77
2021/10/26 12:32:04;;;;;;;;;8.75;7.00;;;;;;;;5096633;28;8757;-76
2021/10/26 12:34:34;;;;;;;;;7.75;7.00;;;;;;;;5095179;28;8817;-76
2021/10/26 12:37:25;;;;;;;;;5.00;5.00;;;;;;;;5096699;28;8766;-77
2021/10/26 12:39:54;;;;;;;;;6.75;6.00;;;;;;;;5092421;28;8826;-76
2021/10/26 12:42:46;;;;;;;;;6.25;6.25;;;;;;;;5095350;28;8815;-77
2021/10/26 12:45:12;;;;;;;;;6.75;6.25;;;;;;;;5090390;28;8784;-77
2021/10/26 12:47:51;;;;;;;;;7.50;6.00;;;;;;;;5096754;28;8766;-77
2021/10/26 12:50:47;;;;;;;;;6.25;6.00;;;;;;;;5096118;28;8766;-77
2021/10/26 12:53:19;;;;;;;;;7.00;6.50;;;;;;;;5096367;28;8888;-75
2021/10/26 12:55:52;;;;;;;;;4.75;4.50;;;;;;;;5096496;28;8795;-77
2021/10/26 12:58:34;;;;;;;;;6.50;6.00;;;;;;;;5096532;28;8754;-76
2021/10/26 13:01:00;;;;;;;;;7.25;7.25;;;;;;;;5096364;28;8778;-77
2021/10/26 13:03:25;;;;;;;;;9.00;7.67;;;;;;;;5096231;28;8777;-76
2021/10/26 13:05:52;;;;;;;;;7.67;6.00;;;;;;;;5096240;28;10110;-77
2021/10/26 13:08:21;;;;;;;;;7.00;6.75;;;;;;;;5096243;28;8703;-76
2021/10/26 13:10:46;;;;;;;;;9.00;6.50;;;;;;;;5096454;28;8777;-76
2021/10/26 13:13:13;;;;;;;;;6.33;6.00;;;;;;;;5096332;28;8838;-76
2021/10/26 13:15:42;;;;;;;;;6.50;6.25;;;;;;;;5094915;28;8786;-76
2021/10/26 13:18:11;;;;;;;;;6.25;6.00;;;;;;;;5096002;28;8812;-77
2021/10/26 13:20:45;;;;;;;;;5.25;5.25;;;;;;;;5096123;28;8797;-77
2021/10/26 13:23:19;;;;;;;;;5.00;4.25;;;;;;;;5095924;28;8793;-77
2021/10/26 13:25:52;;;;;;;;;5.00;5.00;;;;;;;;5094796;28;8808;-76
2021/10/26 13:28:19;;;;;;;;;5.50;4.00;;;;;;;;5094740;28;9178;-76
2021/10/26 13:30:45;;;;;;;;;7.25;7.00;;;;;;;;5108181;28;8770;-76
2021/10/26 13:33:10;;;;;;;;;6.75;6.00;;;;;;;;5114945;28;8807;-76
2021/10/26 13:35:36;;;;;;;;;8.00;8.00;;;;;;;;5119407;27;8806;-77
2021/10/26 13:38:01;;;;;;;;;7.33;7.33;;;;;;;;5119832;27;8807;-77
2021/10/26 13:40:26;;;;;;;;;7.00;7.00;;;;;;;;5119810;27;8831;-76
2021/10/26 13:42:51;;;;;;;;;6.00;6.00;;;;;;;;5118476;28;8876;-77
2021/10/26 13:45:17;;;;;;;;;6.00;6.00;;;;;;;;5119961;27;8821;-77
2021/10/26 13:47:46;;;;;;;;;8.33;7.00;;;;;;;;5119752;27;8783;-77
2021/10/26 13:50:12;;;;;;;;;7.50;7.50;;;;;;;;5117850;28;8943;-77
2021/10/26 13:52:38;;;;;;;;;8.33;6.67;;;;;;;;5119486;27;8832;-73
2021/10/26 13:55:05;;;;;;;;;6.75;6.50;;;;;;;;5119871;27;8779;-77
2021/10/26 13:57:30;;;;;;;;;6.50;6.25;;;;;;;;5118348;28;8779;-76
2021/10/26 13:59:55;;;;;;;;;7.67;7.67;;;;;;;;5118049;28;8841;-77
2021/10/26 14:02:20;;;;;;;;;7.00;6.67;;;;;;;;5119585;27;8791;-76
2021/10/26 14:04:46;;;;;;;;;6.67;6.00;;;;;;;;5119489;27;8787;-77
2021/10/26 14:07:11;;;;;;;;;4.67;4.33;;;;;;;;5119393;27;8795;-77
2021/10/26 14:09:36;;;;;;;;;6.00;6.00;;;;;;;;5119528;27;8799;-77
2021/10/26 14:12:02;;;;;;;;;6.00;6.00;;;;;;;;5119342;27;8854;-77
2021/10/26 14:14:28;;;;;;;;;5.75;5.75;;;;;;;;5118031;28;8787;-77
2021/10/26 14:16:53;;;;;;;;;7.00;7.00;;;;;;;;5118141;27;8815;-76
2021/10/26 14:19:18;;;;;;;;;8.33;7.33;;;;;;;;5119067;27;8826;-74
2021/10/26 14:21:44;;;;;;;;;4.67;4.67;;;;;;;;5117663;28;8799;-77
2021/10/26 14:24:09;;;;;;;;;6.67;6.67;;;;;;;;5119128;27;8775;-77
2021/10/26 14:26:35;;;;;;;;;7.00;5.67;;;;;;;;5117940;28;8823;-75
2021/10/26 14:29:00;;;;;;;;;8.00;5.00;;;;;;;;5119112;27;8795;-76
2021/10/26 14:31:25;;;;;;;;;4.67;4.67;;;;;;;;5099589;28;8848;-77
2021/10/26 14:33:53;;;;;;;;;5.67;5.67;;;;;;;;5098469;28;8887;-76
2021/10/26 14:36:37;;;;;;;;;6.00;5.00;;;;;;;;5098454;28;8718;-77
2021/10/26 14:39:13;;;;;;;;;3.75;3.75;;;;;;;;5098578;28;8789;-77
2021/10/26 14:55:46;;;;;;;;;5.00;5.00;;;;;;;;5098388;28;8777;-76
2021/10/26 14:57:55;;;;;;;;;4.25;4.00;;;;;;;;5097914;28;8750;-77